sensor_id;sensor_type;location;lat;lon;timestamp;P1;durP1;ratioP1;P2;durP2;ratioP2
31732;SDS011;18312;51.486;7.144;2023-10-13T00:01:33;1368.35;;;999.90;;
31732;SDS011;18312;51.486;7.144;2023-10-13T00:04:00;1368.25;;;999.90;;
31732;SDS011;18312;51.486;7.144;2023-10-13T00:06:30;1365.90;;;999.90;;
31732;SDS011;18312;51.486;7.144;2023-10-13T00:08:57;1368.40;;;999.90;;
31732;SDS011;18312;51.486;7.144;2023-10-13T00:11:24;1369.07;;;999.90;;
31732;SDS011;18312;51.486;7.144;2023-10-13T00:13:53;1368.43;;;999.90;;
31732;SDS011;18312;51.486;7.144;2023-10-13T00:16:20;1369.55;;;999.90;;
31732;SDS011;18312;51.486;7.144;2023-10-13T00:18:50;1370.40;;;999.90;;
31732;SDS011;18312;51.486;7.144;2023-10-13T00:21:19;1369.78;;;999.90;;
31732;SDS011;18312;51.486;7.144;2023-10-13T00:23:56;1371.10;;;999.90;;
31732;SDS011;18312;51.486;7.144;2023-10-13T00:26:26;1369.68;;;999.90;;
31732;SDS011;18312;51.486;7.144;2023-10-13T00:28:56;1369.90;;;999.90;;
31732;SDS011;18312;51.486;7.144;2023-10-13T00:31:34;1371.47;;;999.90;;
31732;SDS011;18312;51.486;7.144;2023-10-13T00:34:03;1363.93;;;999.90;;
31732;SDS011;18312;51.486;7.144;2023-10-13T00:36:36;1367.72;;;999.90;;
31732;SDS011;18312;51.486;7.144;2023-10-13T00:39:11;1374.43;;;999.90;;
31732;SDS011;18312;51.486;7.144;2023-10-13T00:41:40;1366.45;;;999.90;;
31732;SDS011;18312;51.486;7.144;2023-10-13T00:44:18;1368.07;;;999.90;;
31732;SDS011;18312;51.486;7.144;2023-10-13T00:46:51;1370.68;;;999.90;;
31732;SDS011;18312;51.486;7.144;2023-10-13T00:49:22;1366.57;;;999.90;;
31732;SDS011;18312;51.486;7.144;2023-10-13T00:51:48;1364.35;;;999.90;;
31732;SDS011;18312;51.486;7.144;2023-10-13T00:54:16;1365.68;;;999.90;;
31732;SDS011;18312;51.486;7.144;2023-10-13T00:56:43;1368.30;;;999.90;;
31732;SDS011;18312;51.486;7.144;2023-10-13T00:59:14;1367.53;;;999.90;;
31732;SDS011;18312;51.486;7.144;2023-10-13T01:01:42;1365.18;;;999.90;;
31732;SDS011;18312;51.486;7.144;2023-10-13T01:04:25;1363.20;;;999.90;;
31732;SDS011;18312;51.486;7.144;2023-10-13T01:06:53;1359.53;;;999.90;;
31732;SDS011;18312;51.486;7.144;2023-10-13T01:09:21;1361.15;;;999.90;;
31732;SDS011;18312;51.486;7.144;2023-10-13T01:11:50;1362.80;;;999.90;;
31732;SDS011;18312;51.486;7.144;2023-10-13T01:14:40;1365.65;;;999.90;;
31732;SDS011;18312;51.486;7.144;2023-10-13T01:20:45;1366.72;;;999.90;;
31732;SDS011;18312;51.486;7.144;2023-10-13T01:23:24;1363.03;;;999.90;;
31732;SDS011;18312;51.486;7.144;2023-10-13T01:26:35;1364.18;;;999.90;;
31732;SDS011;18312;51.486;7.144;2023-10-13T01:32:12;1364.00;;;999.90;;
31732;SDS011;18312;51.486;7.144;2023-10-13T01:34:48;1366.28;;;999.90;;
31732;SDS011;18312;51.486;7.144;2023-10-13T01:37:55;1365.43;;;999.90;;
31732;SDS011;18312;51.486;7.144;2023-10-13T01:43:26;1362.60;;;999.90;;
31732;SDS011;18312;51.486;7.144;2023-10-13T01:48:57;1363.93;;;999.90;;
31732;SDS011;18312;51.486;7.144;2023-10-13T01:51:24;1365.68;;;999.90;;
31732;SDS011;18312;51.486;7.144;2023-10-13T01:54:06;1364.15;;;999.90;;
31732;SDS011;18312;51.486;7.144;2023-10-13T01:56:45;1366.22;;;999.90;;
31732;SDS011;18312;51.486;7.144;2023-10-13T02:06:01;1361.80;;;999.90;;
31732;SDS011;18312;51.486;7.144;2023-10-13T02:08:30;1364.35;;;999.90;;
31732;SDS011;18312;51.486;7.144;2023-10-13T02:14:09;1366.00;;;999.90;;
31732;SDS011;18312;51.486;7.144;2023-10-13T02:16:36;1363.95;;;999.90;;
31732;SDS011;18312;51.486;7.144;2023-10-13T02:19:03;1365.93;;;999.90;;
31732;SDS011;18312;51.486;7.144;2023-10-13T02:21:29;1364.97;;;999.90;;
31732;SDS011;18312;51.486;7.144;2023-10-13T02:27:17;1363.22;;;999.90;;
31732;SDS011;18312;51.486;7.144;2023-10-13T02:33:18;1363.68;;;999.90;;
31732;SDS011;18312;51.486;7.144;2023-10-13T02:35:57;1364.97;;;999.90;;
31732;SDS011;18312;51.486;7.144;2023-10-13T02:41:48;1368.20;;;999.90;;
31732;SDS011;18312;51.486;7.144;2023-10-13T02:45:02;1366.13;;;999.90;;
31732;SDS011;18312;51.486;7.144;2023-10-13T02:50:58;1361.75;;;999.90;;
31732;SDS011;18312;51.486;7.144;2023-10-13T02:56:38;1365.05;;;999.90;;
31732;SDS011;18312;51.486;7.144;2023-10-13T03:05:49;1364.57;;;999.90;;
31732;SDS011;18312;51.486;7.144;2023-10-13T03:11:48;1363.10;;;999.90;;
31732;SDS011;18312;51.486;7.144;2023-10-13T03:14:17;1366.55;;;999.90;;
31732;SDS011;18312;51.486;7.144;2023-10-13T03:16:55;1365.35;;;999.90;;
31732;SDS011;18312;51.486;7.144;2023-10-13T03:19:45;1365.32;;;999.90;;
31732;SDS011;18312;51.486;7.144;2023-10-13T03:22:15;1366.05;;;999.90;;
31732;SDS011;18312;51.486;7.144;2023-10-13T03:24:42;1366.22;;;999.90;;
31732;SDS011;18312;51.486;7.144;2023-10-13T03:27:13;1367.70;;;999.90;;
31732;SDS011;18312;51.486;7.144;2023-10-13T03:29:50;1365.47;;;999.90;;
31732;SDS011;18312;51.486;7.144;2023-10-13T03:32:21;1364.55;;;999.90;;
31732;SDS011;18312;51.486;7.144;2023-10-13T03:34:58;1364.82;;;999.90;;
31732;SDS011;18312;51.486;7.144;2023-10-13T03:38:09;1364.75;;;999.90;;
31732;SDS011;18312;51.486;7.144;2023-10-13T03:40:54;1364.72;;;999.90;;
31732;SDS011;18312;51.486;7.144;2023-10-13T03:43:41;1365.70;;;999.90;;
31732;SDS011;18312;51.486;7.144;2023-10-13T03:50:22;1364.40;;;999.90;;
31732;SDS011;18312;51.486;7.144;2023-10-13T03:53:24;1365.05;;;999.90;;
31732;SDS011;18312;51.486;7.144;2023-10-13T03:56:20;1364.35;;;999.90;;
31732;SDS011;18312;51.486;7.144;2023-10-13T04:02:17;1361.07;;;999.90;;
31732;SDS011;18312;51.486;7.144;2023-10-13T04:11:59;1359.22;;;999.90;;
31732;SDS011;18312;51.486;7.144;2023-10-13T04:15:12;1360.33;;;999.90;;
31732;SDS011;18312;51.486;7.144;2023-10-13T04:17:56;1361.05;;;999.90;;
31732;SDS011;18312;51.486;7.144;2023-10-13T04:20:39;1358.88;;;999.90;;
31732;SDS011;18312;51.486;7.144;2023-10-13T04:23:14;1363.20;;;999.90;;
31732;SDS011;18312;51.486;7.144;2023-10-13T04:25:56;1361.57;;;999.90;;
31732;SDS011;18312;51.486;7.144;2023-10-13T04:28:46;1361.63;;;999.90;;
31732;SDS011;18312;51.486;7.144;2023-10-13T04:52:20;1361.45;;;999.90;;
31732;SDS011;18312;51.486;7.144;2023-10-13T04:55:11;1360.10;;;999.90;;
31732;SDS011;18312;51.486;7.144;2023-10-13T04:58:13;1365.93;;;999.90;;
31732;SDS011;18312;51.486;7.144;2023-10-13T05:01:20;1359.70;;;999.90;;
31732;SDS011;18312;51.486;7.144;2023-10-13T05:15:48;1362.45;;;999.90;;
31732;SDS011;18312;51.486;7.144;2023-10-13T05:18:34;1362.35;;;999.90;;
31732;SDS011;18312;51.486;7.144;2023-10-13T05:21:19;1362.53;;;999.90;;
31732;SDS011;18312;51.486;7.144;2023-10-13T05:24:00;1364.10;;;999.90;;
31732;SDS011;18312;51.486;7.144;2023-10-13T05:26:50;1366.43;;;999.90;;
31732;SDS011;18312;51.486;7.144;2023-10-13T05:29:38;1364.55;;;999.90;;
31732;SDS011;18312;51.486;7.144;2023-10-13T05:32:24;1362.28;;;999.90;;
31732;SDS011;18312;51.486;7.144;2023-10-13T05:35:09;1361.35;;;999.90;;
31732;SDS011;18312;51.486;7.144;2023-10-13T05:37:54;1361.57;;;999.90;;
31732;SDS011;18312;51.486;7.144;2023-10-13T05:40:38;1361.70;;;999.90;;
31732;SDS011;18312;51.486;7.144;2023-10-13T05:43:23;1360.57;;;999.90;;
31732;SDS011;18312;51.486;7.144;2023-10-13T05:46:07;1360.68;;;999.90;;
31732;SDS011;18312;51.486;7.144;2023-10-13T05:49:01;1365.03;;;999.90;;
31732;SDS011;18312;51.486;7.144;2023-10-13T05:51:52;1361.65;;;999.90;;
31732;SDS011;18312;51.486;7.144;2023-10-13T05:54:25;1358.27;;;999.90;;
31732;SDS011;18312;51.486;7.144;2023-10-13T05:57:09;1360.70;;;999.90;;
31732;SDS011;18312;51.486;7.144;2023-10-13T06:00:10;1359.72;;;999.90;;
31732;SDS011;18312;51.486;7.144;2023-10-13T06:03:04;1364.77;;;999.90;;
31732;SDS011;18312;51.486;7.144;2023-10-13T06:05:51;1358.70;;;999.90;;
31732;SDS011;18312;51.486;7.144;2023-10-13T06:08:35;1359.13;;;999.90;;
31732;SDS011;18312;51.486;7.144;2023-10-13T06:11:20;1360.38;;;999.90;;
31732;SDS011;18312;51.486;7.144;2023-10-13T06:14:06;1362.23;;;999.90;;
31732;SDS011;18312;51.486;7.144;2023-10-13T06:16:50;1364.00;;;999.90;;
31732;SDS011;18312;51.486;7.144;2023-10-13T06:19:46;1363.88;;;999.90;;
31732;SDS011;18312;51.486;7.144;2023-10-13T06:22:32;1363.67;;;999.90;;
31732;SDS011;18312;51.486;7.144;2023-10-13T06:25:16;1364.18;;;999.90;;
31732;SDS011;18312;51.486;7.144;2023-10-13T06:28:00;1366.57;;;999.90;;
31732;SDS011;18312;51.486;7.144;2023-10-13T06:30:53;1361.18;;;999.90;;
31732;SDS011;18312;51.486;7.144;2023-10-13T06:33:56;1361.32;;;999.90;;
31732;SDS011;18312;51.486;7.144;2023-10-13T06:36:28;1359.13;;;999.90;;
31732;SDS011;18312;51.486;7.144;2023-10-13T06:39:18;1359.30;;;999.90;;
31732;SDS011;18312;51.486;7.144;2023-10-13T06:45:08;1360.50;;;999.90;;
31732;SDS011;18312;51.486;7.144;2023-10-13T06:47:41;1360.05;;;999.90;;
31732;SDS011;18312;51.486;7.144;2023-10-13T06:50:12;1363.90;;;999.90;;
31732;SDS011;18312;51.486;7.144;2023-10-13T06:52:51;1363.60;;;999.90;;
31732;SDS011;18312;51.486;7.144;2023-10-13T06:55:25;1364.47;;;999.90;;
31732;SDS011;18312;51.486;7.144;2023-10-13T06:58:21;1364.78;;;999.90;;
31732;SDS011;18312;51.486;7.144;2023-10-13T07:01:08;1364.30;;;999.90;;
31732;SDS011;18312;51.486;7.144;2023-10-13T07:03:55;1364.27;;;999.90;;
31732;SDS011;18312;51.486;7.144;2023-10-13T07:06:38;1366.65;;;999.90;;
31732;SDS011;18312;51.486;7.144;2023-10-13T07:09:15;1367.60;;;999.90;;
31732;SDS011;18312;51.486;7.144;2023-10-13T07:11:59;1371.63;;;999.90;;
31732;SDS011;18312;51.486;7.144;2023-10-13T07:14:30;1372.47;;;999.90;;
31732;SDS011;18312;51.486;7.144;2023-10-13T07:17:00;1371.30;;;999.90;;
31732;SDS011;18312;51.486;7.144;2023-10-13T07:19:29;1372.73;;;999.90;;
31732;SDS011;18312;51.486;7.144;2023-10-13T07:21:56;1372.32;;;999.90;;
31732;SDS011;18312;51.486;7.144;2023-10-13T07:24:25;1375.50;;;999.90;;
31732;SDS011;18312;51.486;7.144;2023-10-13T07:26:56;1378.78;;;999.90;;
31732;SDS011;18312;51.486;7.144;2023-10-13T07:29:29;1377.40;;;999.90;;
31732;SDS011;18312;51.486;7.144;2023-10-13T07:32:08;1382.30;;;999.90;;
31732;SDS011;18312;51.486;7.144;2023-10-13T07:34:37;1383.07;;;999.90;;
31732;SDS011;18312;51.486;7.144;2023-10-13T07:37:14;1383.28;;;999.90;;
31732;SDS011;18312;51.486;7.144;2023-10-13T07:39:45;1383.47;;;999.90;;
31732;SDS011;18312;51.486;7.144;2023-10-13T07:42:15;1387.47;;;999.90;;
31732;SDS011;18312;51.486;7.144;2023-10-13T07:44:48;1384.72;;;999.90;;
31732;SDS011;18312;51.486;7.144;2023-10-13T07:47:21;1380.53;;;999.90;;
31732;SDS011;18312;51.486;7.144;2023-10-13T07:49:49;1377.83;;;999.90;;
31732;SDS011;18312;51.486;7.144;2023-10-13T07:52:17;1382.45;;;999.90;;
31732;SDS011;18312;51.486;7.144;2023-10-13T07:55:01;1383.97;;;999.90;;
31732;SDS011;18312;51.486;7.144;2023-10-13T07:57:36;1386.22;;;999.90;;
31732;SDS011;18312;51.486;7.144;2023-10-13T08:00:20;1387.23;;;999.90;;
31732;SDS011;18312;51.486;7.144;2023-10-13T08:03:11;1386.30;;;999.90;;
31732;SDS011;18312;51.486;7.144;2023-10-13T08:05:56;1387.60;;;999.90;;
31732;SDS011;18312;51.486;7.144;2023-10-13T08:08:29;1388.53;;;999.90;;
31732;SDS011;18312;51.486;7.144;2023-10-13T08:11:03;1390.30;;;999.90;;
31732;SDS011;18312;51.486;7.144;2023-10-13T08:13:36;1392.80;;;999.90;;
31732;SDS011;18312;51.486;7.144;2023-10-13T08:16:04;1389.85;;;999.90;;
31732;SDS011;18312;51.486;7.144;2023-10-13T08:18:34;1391.15;;;999.90;;
31732;SDS011;18312;51.486;7.144;2023-10-13T08:21:01;1391.68;;;999.90;;
31732;SDS011;18312;51.486;7.144;2023-10-13T08:23:29;1394.60;;;999.90;;
31732;SDS011;18312;51.486;7.144;2023-10-13T08:26:23;1398.70;;;999.90;;
31732;SDS011;18312;51.486;7.144;2023-10-13T08:29:04;1398.72;;;999.90;;
31732;SDS011;18312;51.486;7.144;2023-10-13T08:31:46;1399.18;;;999.90;;
31732;SDS011;18312;51.486;7.144;2023-10-13T08:34:29;1399.33;;;999.90;;
31732;SDS011;18312;51.486;7.144;2023-10-13T08:37:03;1399.85;;;999.90;;
31732;SDS011;18312;51.486;7.144;2023-10-13T08:39:44;1399.07;;;999.90;;
31732;SDS011;18312;51.486;7.144;2023-10-13T08:42:40;1401.15;;;999.90;;
31732;SDS011;18312;51.486;7.144;2023-10-13T08:45:19;1397.83;;;999.90;;
31732;SDS011;18312;51.486;7.144;2023-10-13T08:48:09;1399.63;;;999.90;;
31732;SDS011;18312;51.486;7.144;2023-10-13T08:50:42;1400.50;;;999.90;;
31732;SDS011;18312;51.486;7.144;2023-10-13T08:53:17;1401.57;;;999.90;;
31732;SDS011;18312;51.486;7.144;2023-10-13T08:55:53;1401.82;;;999.90;;
31732;SDS011;18312;51.486;7.144;2023-10-13T08:58:31;1403.65;;;999.90;;
31732;SDS011;18312;51.486;7.144;2023-10-13T09:01:18;1405.72;;;999.90;;
31732;SDS011;18312;51.486;7.144;2023-10-13T09:04:00;1411.22;;;999.90;;
31732;SDS011;18312;51.486;7.144;2023-10-13T09:06:41;1410.78;;;999.90;;
31732;SDS011;18312;51.486;7.144;2023-10-13T09:09:14;1410.80;;;999.90;;
31732;SDS011;18312;51.486;7.144;2023-10-13T09:11:52;1411.40;;;999.90;;
31732;SDS011;18312;51.486;7.144;2023-10-13T09:14:32;1408.80;;;999.90;;
31732;SDS011;18312;51.486;7.144;2023-10-13T09:17:01;1409.35;;;999.90;;
31732;SDS011;18312;51.486;7.144;2023-10-13T09:19:52;1411.88;;;999.90;;
31732;SDS011;18312;51.486;7.144;2023-10-13T09:22:22;1414.43;;;999.90;;
31732;SDS011;18312;51.486;7.144;2023-10-13T09:25:01;1417.32;;;999.90;;
31732;SDS011;18312;51.486;7.144;2023-10-13T09:27:30;1421.18;;;999.90;;
31732;SDS011;18312;51.486;7.144;2023-10-13T09:30:03;1420.32;;;999.90;;
31732;SDS011;18312;51.486;7.144;2023-10-13T09:32:34;1420.43;;;999.90;;
31732;SDS011;18312;51.486;7.144;2023-10-13T09:35:11;1421.45;;;999.90;;
31732;SDS011;18312;51.486;7.144;2023-10-13T09:37:44;1421.20;;;999.90;;
31732;SDS011;18312;51.486;7.144;2023-10-13T09:40:11;1422.65;;;999.90;;
31732;SDS011;18312;51.486;7.144;2023-10-13T09:42:51;1427.20;;;999.90;;
31732;SDS011;18312;51.486;7.144;2023-10-13T09:45:21;1425.72;;;999.90;;
31732;SDS011;18312;51.486;7.144;2023-10-13T09:47:52;1427.40;;;999.90;;
31732;SDS011;18312;51.486;7.144;2023-10-13T09:50:25;1426.45;;;999.90;;
31732;SDS011;18312;51.486;7.144;2023-10-13T09:52:58;1429.60;;;999.90;;
31732;SDS011;18312;51.486;7.144;2023-10-13T09:55:30;1427.32;;;999.90;;
31732;SDS011;18312;51.486;7.144;2023-10-13T09:58:06;1428.78;;;999.90;;
31732;SDS011;18312;51.486;7.144;2023-10-13T10:00:40;1429.47;;;999.90;;
31732;SDS011;18312;51.486;7.144;2023-10-13T10:03:21;1431.32;;;999.90;;
31732;SDS011;18312;51.486;7.144;2023-10-13T10:06:08;1430.85;;;999.90;;
31732;SDS011;18312;51.486;7.144;2023-10-13T10:08:50;1432.15;;;999.90;;
31732;SDS011;18312;51.486;7.144;2023-10-13T10:18:02;1434.88;;;999.90;;
31732;SDS011;18312;51.486;7.144;2023-10-13T10:20:46;1437.13;;;999.90;;
31732;SDS011;18312;51.486;7.144;2023-10-13T10:23:28;1436.10;;;999.90;;
31732;SDS011;18312;51.486;7.144;2023-10-13T10:26:08;1437.10;;;999.90;;
31732;SDS011;18312;51.486;7.144;2023-10-13T10:28:46;1437.68;;;999.90;;
31732;SDS011;18312;51.486;7.144;2023-10-13T10:31:14;1443.03;;;999.90;;
31732;SDS011;18312;51.486;7.144;2023-10-13T10:33:44;1438.27;;;999.90;;
31732;SDS011;18312;51.486;7.144;2023-10-13T10:36:15;1438.50;;;999.90;;
31732;SDS011;18312;51.486;7.144;2023-10-13T10:38:57;1438.20;;;999.90;;
31732;SDS011;18312;51.486;7.144;2023-10-13T10:41:25;1435.22;;;999.90;;
31732;SDS011;18312;51.486;7.144;2023-10-13T10:44:10;1435.38;;;999.90;;
31732;SDS011;18312;51.486;7.144;2023-10-13T10:46:52;1438.70;;;999.90;;
31732;SDS011;18312;51.486;7.144;2023-10-13T10:49:23;1436.00;;;999.90;;
31732;SDS011;18312;51.486;7.144;2023-10-13T10:52:02;1433.70;;;999.90;;
31732;SDS011;18312;51.486;7.144;2023-10-13T10:54:42;1440.63;;;999.90;;
31732;SDS011;18312;51.486;7.144;2023-10-13T10:57:32;1438.00;;;999.90;;
31732;SDS011;18312;51.486;7.144;2023-10-13T11:00:17;1436.65;;;999.90;;
31732;SDS011;18312;51.486;7.144;2023-10-13T11:03:08;1434.88;;;999.90;;
31732;SDS011;18312;51.486;7.144;2023-10-13T11:05:46;1436.22;;;999.90;;
31732;SDS011;18312;51.486;7.144;2023-10-13T11:08:22;1439.03;;;999.90;;
31732;SDS011;18312;51.486;7.144;2023-10-13T11:11:11;1433.63;;;999.90;;
31732;SDS011;18312;51.486;7.144;2023-10-13T11:14:26;1437.97;;;999.90;;
31732;SDS011;18312;51.486;7.144;2023-10-13T11:17:04;1440.23;;;999.90;;
31732;SDS011;18312;51.486;7.144;2023-10-13T11:22:50;1437.68;;;999.90;;
31732;SDS011;18312;51.486;7.144;2023-10-13T11:25:31;1444.53;;;999.90;;
31732;SDS011;18312;51.486;7.144;2023-10-13T11:31:26;1441.70;;;999.90;;
31732;SDS011;18312;51.486;7.144;2023-10-13T11:34:09;1442.88;;;999.90;;
31732;SDS011;18312;51.486;7.144;2023-10-13T11:39:59;1443.97;;;999.90;;
31732;SDS011;18312;51.486;7.144;2023-10-13T11:43:05;1444.88;;;999.90;;
31732;SDS011;18312;51.486;7.144;2023-10-13T11:49:03;1444.85;;;999.90;;
31732;SDS011;18312;51.486;7.144;2023-10-13T11:51:50;1447.10;;;999.90;;
31732;SDS011;18312;51.486;7.144;2023-10-13T11:55:06;1448.97;;;999.90;;
31732;SDS011;18312;51.486;7.144;2023-10-13T11:57:54;1450.70;;;999.90;;
31732;SDS011;18312;51.486;7.144;2023-10-13T12:00:25;1453.53;;;999.90;;
31732;SDS011;18312;51.486;7.144;2023-10-13T12:07:07;1454.57;;;999.90;;
31732;SDS011;18312;51.486;7.144;2023-10-13T12:10:18;1458.47;;;999.90;;
31732;SDS011;18312;51.486;7.144;2023-10-13T12:13:25;1459.03;;;999.90;;
31732;SDS011;18312;51.486;7.144;2023-10-13T12:19:37;1460.22;;;999.90;;
31732;SDS011;18312;51.486;7.144;2023-10-13T12:22:16;1456.70;;;999.90;;
31732;SDS011;18312;51.486;7.144;2023-10-13T12:24:52;1458.28;;;999.90;;
31732;SDS011;18312;51.486;7.144;2023-10-13T12:30:51;1456.80;;;999.90;;
31732;SDS011;18312;51.486;7.144;2023-10-13T12:33:46;1456.47;;;999.90;;
31732;SDS011;18312;51.486;7.144;2023-10-13T12:37:17;1457.18;;;999.90;;
31732;SDS011;18312;51.486;7.144;2023-10-13T12:40:16;1456.30;;;999.90;;
31732;SDS011;18312;51.486;7.144;2023-10-13T12:43:14;1456.80;;;999.90;;
31732;SDS011;18312;51.486;7.144;2023-10-13T12:46:00;1457.57;;;999.90;;
31732;SDS011;18312;51.486;7.144;2023-10-13T12:48:52;1458.07;;;999.90;;
31732;SDS011;18312;51.486;7.144;2023-10-13T12:51:35;1460.77;;;999.90;;
31732;SDS011;18312;51.486;7.144;2023-10-13T12:54:19;1462.22;;;999.90;;
31732;SDS011;18312;51.486;7.144;2023-10-13T12:56:54;1462.18;;;999.90;;
31732;SDS011;18312;51.486;7.144;2023-10-13T12:59:27;1458.55;;;999.90;;
31732;SDS011;18312;51.486;7.144;2023-10-13T13:02:02;1457.13;;;999.90;;
31732;SDS011;18312;51.486;7.144;2023-10-13T13:05:07;1455.60;;;999.90;;
31732;SDS011;18312;51.486;7.144;2023-10-13T13:07:41;1456.27;;;999.90;;
31732;SDS011;18312;51.486;7.144;2023-10-13T13:10:31;1452.75;;;999.90;;
31732;SDS011;18312;51.486;7.144;2023-10-13T13:16:09;1454.38;;;999.90;;
31732;SDS011;18312;51.486;7.144;2023-10-13T13:18:36;1453.40;;;999.90;;
31732;SDS011;18312;51.486;7.144;2023-10-13T13:21:17;1451.15;;;999.90;;
31732;SDS011;18312;51.486;7.144;2023-10-13T13:23:48;1452.10;;;999.90;;
31732;SDS011;18312;51.486;7.144;2023-10-13T13:26:17;1452.38;;;999.90;;
31732;SDS011;18312;51.486;7.144;2023-10-13T13:28:49;1452.75;;;999.90;;
31732;SDS011;18312;51.486;7.144;2023-10-13T13:31:16;1450.05;;;999.90;;
31732;SDS011;18312;51.486;7.144;2023-10-13T13:33:54;1451.45;;;999.90;;
31732;SDS011;18312;51.486;7.144;2023-10-13T13:36:22;1451.43;;;999.90;;
31732;SDS011;18312;51.486;7.144;2023-10-13T13:38:58;1449.28;;;999.90;;
31732;SDS011;18312;51.486;7.144;2023-10-13T13:44:27;1448.72;;;999.90;;
31732;SDS011;18312;51.486;7.144;2023-10-13T13:47:03;1452.57;;;999.90;;
31732;SDS011;18312;51.486;7.144;2023-10-13T13:49:39;1448.97;;;999.90;;
31732;SDS011;18312;51.486;7.144;2023-10-13T13:52:30;1448.75;;;999.90;;
31732;SDS011;18312;51.486;7.144;2023-10-13T14:01:01;1449.20;;;999.90;;
31732;SDS011;18312;51.486;7.144;2023-10-13T14:06:32;1444.80;;;999.90;;
31732;SDS011;18312;51.486;7.144;2023-10-13T14:09:21;1450.72;;;999.90;;
31732;SDS011;18312;51.486;7.144;2023-10-13T14:12:06;1447.28;;;999.90;;
31732;SDS011;18312;51.486;7.144;2023-10-13T14:14:56;1443.90;;;999.90;;
31732;SDS011;18312;51.486;7.144;2023-10-13T14:17:29;1448.32;;;999.90;;
31732;SDS011;18312;51.486;7.144;2023-10-13T14:20:02;1443.63;;;999.90;;
31732;SDS011;18312;51.486;7.144;2023-10-13T14:22:52;1442.63;;;999.90;;
31732;SDS011;18312;51.486;7.144;2023-10-13T14:25:39;1444.20;;;999.90;;
31732;SDS011;18312;51.486;7.144;2023-10-13T14:28:12;1441.82;;;999.90;;
31732;SDS011;18312;51.486;7.144;2023-10-13T14:30:47;1444.60;;;999.90;;
31732;SDS011;18312;51.486;7.144;2023-10-13T14:33:16;1443.95;;;999.90;;
31732;SDS011;18312;51.486;7.144;2023-10-13T14:35:50;1441.63;;;999.90;;
31732;SDS011;18312;51.486;7.144;2023-10-13T14:38:23;1444.90;;;999.90;;
31732;SDS011;18312;51.486;7.144;2023-10-13T14:40:56;1443.22;;;999.90;;
31732;SDS011;18312;51.486;7.144;2023-10-13T14:43:26;1442.80;;;999.90;;
31732;SDS011;18312;51.486;7.144;2023-10-13T14:45:59;1442.57;;;999.90;;
31732;SDS011;18312;51.486;7.144;2023-10-13T14:50:59;1443.07;;;999.90;;
31732;SDS011;18312;51.486;7.144;2023-10-13T14:53:33;1439.67;;;999.90;;
31732;SDS011;18312;51.486;7.144;2023-10-13T14:56:00;1438.47;;;999.90;;
31732;SDS011;18312;51.486;7.144;2023-10-13T14:58:30;1440.27;;;999.90;;
31732;SDS011;18312;51.486;7.144;2023-10-13T15:03:57;1435.85;;;999.90;;
31732;SDS011;18312;51.486;7.144;2023-10-13T15:06:39;1436.35;;;999.90;;
31732;SDS011;18312;51.486;7.144;2023-10-13T15:09:16;1434.95;;;999.90;;
31732;SDS011;18312;51.486;7.144;2023-10-13T15:11:48;1437.43;;;999.90;;
31732;SDS011;18312;51.486;7.144;2023-10-13T15:14:26;1433.43;;;999.90;;
31732;SDS011;18312;51.486;7.144;2023-10-13T15:19:41;1433.75;;;999.90;;
31732;SDS011;18312;51.486;7.144;2023-10-13T15:22:22;1432.70;;;999.90;;
31732;SDS011;18312;51.486;7.144;2023-10-13T15:24:52;1434.63;;;999.90;;
31732;SDS011;18312;51.486;7.144;2023-10-13T15:27:33;1432.28;;;999.90;;
31732;SDS011;18312;51.486;7.144;2023-10-13T15:32:57;1433.72;;;999.90;;
31732;SDS011;18312;51.486;7.144;2023-10-13T15:35:28;1434.38;;;999.90;;
31732;SDS011;18312;51.486;7.144;2023-10-13T15:37:56;1433.73;;;999.90;;
31732;SDS011;18312;51.486;7.144;2023-10-13T15:40:26;1429.18;;;999.90;;
31732;SDS011;18312;51.486;7.144;2023-10-13T15:43:13;1430.95;;;999.90;;
31732;SDS011;18312;51.486;7.144;2023-10-13T15:45:57;1428.63;;;999.90;;
31732;SDS011;18312;51.486;7.144;2023-10-13T15:48:30;1429.80;;;999.90;;
31732;SDS011;18312;51.486;7.144;2023-10-13T15:51:03;1431.10;;;999.90;;
31732;SDS011;18312;51.486;7.144;2023-10-13T15:53:35;1431.80;;;999.90;;
31732;SDS011;18312;51.486;7.144;2023-10-13T15:56:08;1429.32;;;999.90;;
31732;SDS011;18312;51.486;7.144;2023-10-13T15:58:39;1429.07;;;999.90;;
31732;SDS011;18312;51.486;7.144;2023-10-13T16:01:21;1426.50;;;999.90;;
31732;SDS011;18312;51.486;7.144;2023-10-13T16:03:52;1429.87;;;999.90;;
31732;SDS011;18312;51.486;7.144;2023-10-13T16:06:50;1426.60;;;999.90;;
31732;SDS011;18312;51.486;7.144;2023-10-13T16:09:21;1429.22;;;999.90;;
31732;SDS011;18312;51.486;7.144;2023-10-13T16:11:49;1430.45;;;999.90;;
31732;SDS011;18312;51.486;7.144;2023-10-13T16:14:25;1429.13;;;999.90;;
31732;SDS011;18312;51.486;7.144;2023-10-13T16:17:00;1427.43;;;999.90;;
31732;SDS011;18312;51.486;7.144;2023-10-13T16:19:39;1427.90;;;999.90;;
31732;SDS011;18312;51.486;7.144;2023-10-13T16:22:10;1429.22;;;999.90;;
31732;SDS011;18312;51.486;7.144;2023-10-13T16:24:53;1446.65;;;999.90;;
31732;SDS011;18312;51.486;7.144;2023-10-13T16:27:27;1441.47;;;999.90;;
31732;SDS011;18312;51.486;7.144;2023-10-13T16:29:55;1439.47;;;999.90;;
31732;SDS011;18312;51.486;7.144;2023-10-13T16:32:23;1439.65;;;999.90;;
31732;SDS011;18312;51.486;7.144;2023-10-13T16:34:55;1438.70;;;999.90;;
31732;SDS011;18312;51.486;7.144;2023-10-13T16:37:30;1438.55;;;999.90;;
31732;SDS011;18312;51.486;7.144;2023-10-13T16:40:21;1438.32;;;999.90;;
31732;SDS011;18312;51.486;7.144;2023-10-13T16:43:31;1440.43;;;999.90;;
31732;SDS011;18312;51.486;7.144;2023-10-13T16:46:26;1445.68;;;999.90;;
31732;SDS011;18312;51.486;7.144;2023-10-13T16:49:01;1446.45;;;999.90;;
31732;SDS011;18312;51.486;7.144;2023-10-13T16:51:32;1447.38;;;999.90;;
31732;SDS011;18312;51.486;7.144;2023-10-13T16:54:19;1450.32;;;999.90;;
31732;SDS011;18312;51.486;7.144;2023-10-13T16:56:56;1449.75;;;999.90;;
31732;SDS011;18312;51.486;7.144;2023-10-13T16:59:51;1450.03;;;999.90;;
31732;SDS011;18312;51.486;7.144;2023-10-13T17:02:36;1448.65;;;999.90;;
31732;SDS011;18312;51.486;7.144;2023-10-13T17:05:07;1447.38;;;999.90;;
31732;SDS011;18312;51.486;7.144;2023-10-13T17:07:44;1448.43;;;999.90;;
31732;SDS011;18312;51.486;7.144;2023-10-13T17:10:12;1443.78;;;999.90;;
31732;SDS011;18312;51.486;7.144;2023-10-13T17:12:59;1444.07;;;999.90;;
31732;SDS011;18312;51.486;7.144;2023-10-13T17:15:30;1444.18;;;999.90;;
31732;SDS011;18312;51.486;7.144;2023-10-13T17:18:04;1442.28;;;999.90;;
31732;SDS011;18312;51.486;7.144;2023-10-13T17:20:45;1442.53;;;999.90;;
31732;SDS011;18312;51.486;7.144;2023-10-13T17:23:16;1441.93;;;999.90;;
31732;SDS011;18312;51.486;7.144;2023-10-13T17:25:43;1443.85;;;999.90;;